createdAt,value
2019-04-03T00:00:06.169Z,83.22
2019-04-03T00:02:35.280Z,83.22
2019-04-03T00:05:05.685Z,83.87
2019-04-03T00:07:35.918Z,85.80
2019-04-03T00:10:06.850Z,86.10
2019-04-03T00:12:36.881Z,86.78
2019-04-03T00:15:07.707Z,85.84
2019-04-03T00:17:36.781Z,85.71
2019-04-03T00:20:07.131Z,86.26
2019-04-03T00:22:37.433Z,86.04
2019-04-03T00:25:06.786Z,86.89
2019-04-03T00:27:35.796Z,86.83
2019-04-03T00:30:05.810Z,86.61
2019-04-03T00:32:34.954Z,87.52
2019-04-03T00:35:04.797Z,88.77
2019-04-03T00:37:34.318Z,89.77
2019-04-03T00:40:03.423Z,89.95
2019-04-03T00:42:32.509Z,89.85
2019-04-03T00:45:01.574Z,89.69
2019-04-03T00:47:30.621Z,89.27
2019-04-03T00:50:00.083Z,88.68
2019-04-03T00:52:29.131Z,88.35
2019-04-03T00:54:58.154Z,88.95
2019-04-03T00:57:27.186Z,88.83
2019-04-03T00:59:56.901Z,88.67
2019-04-03T01:02:27.927Z,89.15
2019-04-03T01:04:58.400Z,88.62
2019-04-03T01:07:29.207Z,87.83
2019-04-03T01:09:59.566Z,88.51
2019-04-03T01:12:31.254Z,88.01
2019-04-03T01:15:01.692Z,87.79
2019-04-03T01:17:34.176Z,87.45
2019-04-03T01:20:02.545Z,87.52
2019-04-03T01:22:32.137Z,87.33
2019-04-03T01:25:01.167Z,87.66
2019-04-03T01:27:30.171Z,87.66
2019-04-03T01:29:59.483Z,87.62
2019-04-03T01:32:29.026Z,87.52
2019-04-03T01:34:58.479Z,87.20
2019-04-03T01:37:27.779Z,87.63
2019-04-03T01:39:56.983Z,87.70
2019-04-03T01:42:26.644Z,88.75
2019-04-03T01:44:56.082Z,88.17
2019-04-03T01:47:27.361Z,88.86
2019-04-03T01:49:56.850Z,88.18
2019-04-03T01:52:27.414Z,87.80
2019-04-03T01:54:56.488Z,88.58
2019-04-03T01:57:25.619Z,88.80
2019-04-03T01:59:55.587Z,89.11
2019-04-03T02:02:24.715Z,88.94
2019-04-03T02:04:54.289Z,88.95
2019-04-03T02:07:23.631Z,89.52
2019-04-03T02:09:53.398Z,89.47
2019-04-03T02:12:22.397Z,90.28
2019-04-03T02:14:52.069Z,90.45
2019-04-03T02:17:21.824Z,91.12
2019-04-03T02:19:52.003Z,91.36
2019-04-03T02:22:21.251Z,90.21
2019-04-03T02:24:50.423Z,89.64
2019-04-03T02:27:19.555Z,89.14
2019-04-03T02:29:48.973Z,89.07
2019-04-03T02:32:18.215Z,89.53
2019-04-03T02:34:47.742Z,89.39
2019-04-03T02:37:17.712Z,88.47
2019-04-03T02:39:47.093Z,89.23
2019-04-03T02:42:16.169Z,89.13
2019-04-03T02:44:45.168Z,87.75
2019-04-03T02:47:15.256Z,88.09
2019-04-03T02:49:44.928Z,88.86
2019-04-03T02:52:14.673Z,88.29
2019-04-03T02:54:43.840Z,88.43
2019-04-03T02:57:16.168Z,89.29
2019-04-03T02:59:43.655Z,90.03
2019-04-03T03:02:13.676Z,90.65
2019-04-03T03:04:43.435Z,90.96
2019-04-03T03:07:12.468Z,89.95
2019-04-03T03:09:45.559Z,89.81
2019-04-03T03:12:13.033Z,90.50
2019-04-03T03:14:42.292Z,90.45
2019-04-03T03:17:14.691Z,89.94
2019-04-03T03:19:44.108Z,89.99
2019-04-03T03:22:16.968Z,90.76
2019-04-03T03:24:44.487Z,91.04
2019-04-03T03:27:13.806Z,91.32
2019-04-03T03:29:43.136Z,91.62
2019-04-03T03:32:18.801Z,92.80
2019-04-03T03:34:53.202Z,93.73
2019-04-03T03:37:15.661Z,93.93
2019-04-03T03:39:45.036Z,93.50
2019-04-03T03:42:14.921Z,93.28
2019-04-03T03:44:46.080Z,93.07
2019-04-03T03:47:14.943Z,93.02
2019-04-03T03:49:48.611Z,92.24
2019-04-03T03:52:16.758Z,92.35
2019-04-03T03:54:49.583Z,92.51
2019-04-03T03:57:17.755Z,92.20
2019-04-03T03:59:49.941Z,92.12
2019-04-03T04:02:18.108Z,92.35
2019-04-03T04:04:48.822Z,92.65
2019-04-03T04:07:18.334Z,93.02
2019-04-03T04:09:50.588Z,93.38
2019-04-03T04:12:18.573Z,92.71
2019-04-03T04:14:47.964Z,92.67
2019-04-03T04:17:18.873Z,93.50
2019-04-03T04:19:48.271Z,94.55
2019-04-03T04:22:19.107Z,95.21
2019-04-03T04:24:48.909Z,95.66
2019-04-03T04:27:18.001Z,95.02
2019-04-03T04:29:47.381Z,94.73
2019-04-03T04:32:17.840Z,94.55
2019-04-03T04:34:49.264Z,94.65
2019-04-03T04:37:19.018Z,94.58
2019-04-03T04:39:48.505Z,94.81
2019-04-03T04:42:18.329Z,95.12
2019-04-03T04:44:47.717Z,95.08
2019-04-03T04:47:16.854Z,94.83
2019-04-03T04:49:45.910Z,94.71
2019-04-03T04:52:14.938Z,94.82
2019-04-03T04:54:44.053Z,94.57
2019-04-03T04:57:13.086Z,94.73
2019-04-03T04:59:43.020Z,94.90
2019-04-03T05:02:12.974Z,94.40
2019-04-03T05:04:42.407Z,94.15
2019-04-03T05:07:11.890Z,94.44
2019-04-03T05:09:41.057Z,94.62
2019-04-03T05:12:10.377Z,94.95
2019-04-03T05:14:39.768Z,95.27
2019-04-03T05:17:09.100Z,95.03
2019-04-03T05:19:38.604Z,95.07
2019-04-03T05:22:08.125Z,95.56
2019-04-03T05:24:38.468Z,95.59
2019-04-03T05:27:08.385Z,95.61
2019-04-03T05:29:38.333Z,95.60
2019-04-03T05:32:09.615Z,95.50
2019-04-03T05:34:38.624Z,95.28
2019-04-03T05:37:10.743Z,94.96
2019-04-03T05:39:38.978Z,94.61
2019-04-03T05:42:08.215Z,94.18
2019-04-03T05:44:38.036Z,94.35
2019-04-03T05:47:08.139Z,94.10
2019-04-03T05:49:37.760Z,93.76
2019-04-03T05:52:06.924Z,92.98
2019-04-03T05:54:38.590Z,92.98
2019-04-03T05:57:06.855Z,93.21
2019-04-03T05:59:36.009Z,93.67
2019-04-03T06:12:30.530Z,93.93
2019-04-03T06:14:59.807Z,93.49
2019-04-03T06:17:28.879Z,92.95
2019-04-03T06:19:57.905Z,92.17
2019-04-03T06:22:26.963Z,90.04
2019-04-03T06:24:57.041Z,89.69
2019-04-03T06:27:27.942Z,89.81
2019-04-03T06:29:56.884Z,90.06
2019-04-03T06:32:28.599Z,90.15
2019-04-03T06:34:56.827Z,89.81
2019-04-03T06:37:25.996Z,90.12
2019-04-03T06:39:55.022Z,89.69
2019-04-03T06:42:24.275Z,89.69
2019-04-03T06:44:54.403Z,88.67
2019-04-03T06:47:23.482Z,88.18
2019-04-03T06:49:52.483Z,87.36
2019-04-03T06:52:22.167Z,87.00
2019-04-03T06:54:51.278Z,86.76
2019-04-03T06:57:21.214Z,86.30
2019-04-03T06:59:50.704Z,86.64
2019-04-03T07:02:20.382Z,85.91
2019-04-03T07:04:49.489Z,85.26
2019-04-03T07:07:32.625Z,85.72
2019-04-03T07:09:51.171Z,85.15
2019-04-03T07:12:20.250Z,84.30
2019-04-03T07:14:49.501Z,84.00
2019-04-03T07:17:18.560Z,84.94
2019-04-03T07:19:47.668Z,82.85
2019-04-03T07:22:16.832Z,81.17
2019-04-03T07:24:46.384Z,82.39
2019-04-03T07:27:18.165Z,81.47
2019-04-03T07:29:49.692Z,81.48
2019-04-03T07:32:18.846Z,80.08
2019-04-03T07:34:48.036Z,80.22
2019-04-03T07:37:19.298Z,80.32
2019-04-03T07:39:50.190Z,81.08
2019-04-03T07:42:19.244Z,80.73
2019-04-03T07:44:48.563Z,81.21
2019-04-03T07:47:17.611Z,80.54
2019-04-03T07:49:46.904Z,80.21
2019-04-03T07:52:16.832Z,80.04
2019-04-03T07:54:47.127Z,79.80
2019-04-03T07:57:16.862Z,77.36
2019-04-03T07:59:46.227Z,77.73
2019-04-03T08:02:15.462Z,75.80
2019-04-03T08:04:45.114Z,77.97
2019-04-03T08:07:14.120Z,80.60
2019-04-03T08:09:43.238Z,79.74
2019-04-03T08:12:12.661Z,78.21
2019-04-03T08:14:42.059Z,77.24
2019-04-03T08:17:11.412Z,76.26
2019-04-03T08:19:40.460Z,76.64
2019-04-03T08:22:09.808Z,76.82
2019-04-03T08:24:39.774Z,73.83
2019-04-03T08:27:09.505Z,74.26
2019-04-03T08:29:39.353Z,74.94
2019-04-03T08:32:08.516Z,76.58
2019-04-03T08:34:37.690Z,75.05
2019-04-03T08:37:09.627Z,74.12
2019-04-03T08:39:37.829Z,74.40
2019-04-03T08:42:07.071Z,73.64
2019-04-03T08:44:36.518Z,74.61
2019-04-03T08:47:05.795Z,71.76
2019-04-03T08:49:35.054Z,70.88
2019-04-03T08:52:05.659Z,68.67
2019-04-03T08:54:35.098Z,68.03
2019-04-03T08:57:04.405Z,68.91
2019-04-03T08:59:33.944Z,70.04
2019-04-03T09:02:03.159Z,69.40
2019-04-03T09:04:32.662Z,70.06
2019-04-03T09:07:02.063Z,70.10
2019-04-03T09:09:31.093Z,69.99
2019-04-03T09:12:00.258Z,68.95
2019-04-03T09:14:29.625Z,66.49
2019-04-03T09:16:58.756Z,62.62
2019-04-03T09:19:27.804Z,58.14
2019-04-03T09:21:56.991Z,55.56
2019-04-03T09:24:28.995Z,51.75
2019-04-03T09:26:57.001Z,52.35
2019-04-03T09:29:26.434Z,52.71
2019-04-03T09:31:56.606Z,50.13
2019-04-03T09:34:28.760Z,50.60
2019-04-03T09:36:56.762Z,52.27
2019-04-03T09:39:26.168Z,50.18
2019-04-03T09:41:56.209Z,51.63
2019-04-03T09:44:25.963Z,51.63
2019-04-03T09:46:55.440Z,49.06
2019-04-03T09:49:24.751Z,48.99
2019-04-03T09:51:54.297Z,53.42
2019-04-03T09:54:23.557Z,56.37
2019-04-03T09:57:01.703Z,58.21
2019-04-03T09:59:24.215Z,53.23
2019-04-03T10:01:53.456Z,51.38
2019-04-03T10:04:24.141Z,50.50
2019-04-03T10:06:53.545Z,49.58
2019-04-03T10:09:23.096Z,51.85
2019-04-03T10:11:52.642Z,49.88
2019-04-03T10:14:22.813Z,48.75
2019-04-03T10:16:51.905Z,47.36
2019-04-03T10:19:21.415Z,49.68
2019-04-03T10:21:53.294Z,46.39
2019-04-03T10:24:22.205Z,42.43
2019-04-03T10:26:51.667Z,42.84
2019-04-03T10:29:20.865Z,41.68
2019-04-03T10:31:49.916Z,43.78
2019-04-03T10:34:19.319Z,44.10
2019-04-03T10:36:48.398Z,45.58
2019-04-03T10:39:18.081Z,44.05
2019-04-03T10:41:48.402Z,45.84
2019-04-03T10:44:17.526Z,47.63
2019-04-03T10:46:47.931Z,45.36
2019-04-03T10:49:17.623Z,44.87
2019-04-03T10:51:46.641Z,46.01
2019-04-03T10:54:15.730Z,48.97
2019-04-03T10:56:45.190Z,48.69
2019-04-03T10:59:17.649Z,50.93
2019-04-03T11:01:45.708Z,51.17
2019-04-03T11:04:15.136Z,52.05
2019-04-03T11:06:44.393Z,48.40
2019-04-03T11:09:13.414Z,46.95
2019-04-03T11:11:43.768Z,42.36
2019-04-03T11:14:13.425Z,44.80
2019-04-03T11:16:46.125Z,44.66
2019-04-03T11:19:13.845Z,42.47
2019-04-03T11:21:44.080Z,43.88
2019-04-03T11:24:13.798Z,46.57
2019-04-03T11:26:42.978Z,46.82
2019-04-03T11:29:12.020Z,46.16
2019-04-03T11:31:42.584Z,46.16
2019-04-03T11:34:12.519Z,44.13
2019-04-03T11:36:41.776Z,44.03
2019-04-03T11:39:14.954Z,45.48
2019-04-03T11:41:41.625Z,47.29
2019-04-03T11:44:10.747Z,45.40
2019-04-03T11:46:40.138Z,43.92
2019-04-03T11:49:09.487Z,45.70
2019-04-03T11:51:38.727Z,47.40
2019-04-03T11:54:08.591Z,43.74
2019-04-03T11:56:38.115Z,42.09
2019-04-03T11:59:07.382Z,41.59
2019-04-03T12:01:36.467Z,40.29
2019-04-03T12:04:06.039Z,39.82
2019-04-03T12:06:35.444Z,42.91
2019-04-03T12:09:07.250Z,44.35
2019-04-03T12:11:38.718Z,43.40
2019-04-03T12:14:09.627Z,42.17
2019-04-03T12:16:38.637Z,39.47
2019-04-03T12:19:08.075Z,37.89
2019-04-03T12:21:37.646Z,41.11
2019-04-03T12:24:07.196Z,40.64
2019-04-03T12:26:36.901Z,40.09
2019-04-03T12:29:08.958Z,39.70
2019-04-03T12:31:38.531Z,38.14
2019-04-03T12:34:07.653Z,37.18
2019-04-03T12:36:38.792Z,38.40
2019-04-03T12:39:13.538Z,37.47
2019-04-03T12:41:43.177Z,37.54
2019-04-03T12:44:12.689Z,39.72
2019-04-03T12:46:42.821Z,40.44
2019-04-03T12:49:11.887Z,39.86
2019-04-03T12:51:41.328Z,42.58
2019-04-03T12:54:12.810Z,42.47
2019-04-03T12:56:41.530Z,42.24
2019-04-03T12:59:10.668Z,44.04
2019-04-03T13:01:39.917Z,44.31
2019-04-03T13:04:09.366Z,45.23
2019-04-03T13:06:40.621Z,44.29
2019-04-03T13:09:11.268Z,45.60
2019-04-03T13:11:40.795Z,46.40
2019-04-03T13:14:22.114Z,45.61
2019-04-03T13:16:41.881Z,42.07
2019-04-03T13:19:13.445Z,41.51
2019-04-03T13:21:43.023Z,40.63
2019-04-03T13:24:12.634Z,42.11
2019-04-03T13:26:42.730Z,41.65
2019-04-03T13:29:12.209Z,42.93
2019-04-03T13:31:42.008Z,45.08
2019-04-03T13:34:11.811Z,47.47
2019-04-03T13:36:41.080Z,47.47
2019-04-03T13:39:10.117Z,46.68
2019-04-03T13:41:39.956Z,44.96
2019-04-03T13:44:10.337Z,46.48
2019-04-03T13:46:39.413Z,47.51
2019-04-03T13:49:09.443Z,46.88
2019-04-03T13:51:38.462Z,47.36
2019-04-03T13:54:08.051Z,51.67
2019-04-03T13:56:37.912Z,48.33
2019-04-03T13:59:07.217Z,48.55
2019-04-03T14:01:37.896Z,49.25
2019-04-03T14:04:07.117Z,50.34
2019-04-03T14:06:37.169Z,46.95
2019-04-03T14:09:15.211Z,48.81
2019-04-03T14:11:44.693Z,50.17
2019-04-03T14:14:15.622Z,49.05
2019-04-03T14:16:45.446Z,51.51
2019-04-03T14:19:15.086Z,54.23
2019-04-03T14:21:45.135Z,56.43
2019-04-03T14:24:19.482Z,54.33
2019-04-03T14:26:49.149Z,55.08
2019-04-03T14:29:19.238Z,52.68
2019-04-03T14:31:49.653Z,52.15
2019-04-03T14:34:19.100Z,51.86
2019-04-03T14:36:50.207Z,50.72
2019-04-03T14:39:19.633Z,53.93
2019-04-03T14:41:48.719Z,54.78
2019-04-03T14:44:17.791Z,54.19
2019-04-03T14:46:48.382Z,54.06
2019-04-03T14:49:17.915Z,55.32
2019-04-03T14:51:47.144Z,55.29
2019-04-03T14:54:16.283Z,54.70
2019-04-03T14:56:45.718Z,54.28
2019-04-03T14:59:15.039Z,55.30
2019-04-03T15:01:44.220Z,56.62
2019-04-03T15:04:13.497Z,55.03
2019-04-03T15:06:45.614Z,57.16
2019-04-03T15:09:14.577Z,59.54
2019-04-03T15:11:44.022Z,62.99
2019-04-03T15:14:13.085Z,67.57
2019-04-03T15:16:42.953Z,70.40
2019-04-03T15:19:13.771Z,71.38
2019-04-03T15:21:43.140Z,70.38
2019-04-03T15:24:12.881Z,70.23
2019-04-03T15:26:42.161Z,71.91
2019-04-03T15:29:14.547Z,74.76
2019-04-03T15:31:45.815Z,73.38
2019-04-03T15:34:15.110Z,69.32
2019-04-03T15:36:44.210Z,69.05
2019-04-03T15:39:16.401Z,72.64
2019-04-03T15:41:45.038Z,69.13
2019-04-03T15:44:16.333Z,70.85
2019-04-03T15:46:45.469Z,69.84
2019-04-03T15:49:15.333Z,67.44
2019-04-03T15:51:44.386Z,67.96
2019-04-03T15:54:13.430Z,69.32
2019-04-03T15:56:44.930Z,66.59
2019-04-03T15:59:13.731Z,69.71
2019-04-03T16:01:42.746Z,68.85
2019-04-03T16:04:11.872Z,67.77
2019-04-03T16:06:41.053Z,64.99
2019-04-03T16:09:10.337Z,66.44
2019-04-03T16:11:39.842Z,65.20
2019-04-03T16:14:09.281Z,65.95
2019-04-03T16:16:38.315Z,66.11
2019-04-03T16:19:08.872Z,66.00
2019-04-03T16:21:38.457Z,66.36
2019-04-03T16:24:11.387Z,65.09
2019-04-03T16:26:38.225Z,64.06
2019-04-03T16:29:08.490Z,64.33
2019-04-03T16:31:38.540Z,65.07
2019-04-03T16:34:12.169Z,65.98
2019-04-03T16:36:38.868Z,65.23
2019-04-03T16:39:08.405Z,65.56
2019-04-03T16:41:38.373Z,64.91
2019-04-03T16:44:07.808Z,64.14
2019-04-03T16:46:37.197Z,63.95
2019-04-03T16:49:07.693Z,63.70
2019-04-03T16:51:37.240Z,61.27
2019-04-03T16:54:06.515Z,61.27
2019-04-03T16:56:38.545Z,60.54
2019-04-03T16:59:07.404Z,61.88
2019-04-03T17:01:37.403Z,61.93
2019-04-03T17:04:09.167Z,61.93
2019-04-03T17:06:37.794Z,62.66
2019-04-03T17:09:08.868Z,62.46
2019-04-03T17:11:38.224Z,63.62
2019-04-03T17:14:07.269Z,62.83
2019-04-03T17:16:37.482Z,64.15
2019-04-03T17:19:07.516Z,64.12
2019-04-03T17:21:38.573Z,64.91
2019-04-03T17:24:07.828Z,65.63
2019-04-03T17:26:47.951Z,67.00
2019-04-03T17:29:09.239Z,65.36
2019-04-03T17:31:38.743Z,66.53
2019-04-03T17:34:08.405Z,65.91
2019-04-03T17:36:37.886Z,67.23
2019-04-03T17:39:08.851Z,68.42
2019-04-03T17:41:39.215Z,68.41
2019-04-03T17:44:09.192Z,69.94
2019-04-03T17:46:39.995Z,70.66
2019-04-03T17:49:09.268Z,70.82
2019-04-03T17:51:38.436Z,71.77
2019-04-03T17:54:07.723Z,71.88
2019-04-03T17:56:37.309Z,72.81
2019-04-03T17:59:06.384Z,73.48
2019-04-03T18:01:35.767Z,74.16
2019-04-03T18:04:04.829Z,74.96
2019-04-03T18:06:33.850Z,75.66
2019-04-03T18:09:04.528Z,75.49
2019-04-03T18:11:33.991Z,76.65
2019-04-03T18:14:03.366Z,76.17
2019-04-03T18:16:32.644Z,76.03
2019-04-03T18:19:04.527Z,75.82
2019-04-03T18:21:32.434Z,75.65
2019-04-03T18:24:01.601Z,75.53
2019-04-03T18:26:31.144Z,75.85
2019-04-03T18:29:00.915Z,75.21
2019-04-03T18:31:30.055Z,76.57
2019-04-03T18:33:59.108Z,76.97
2019-04-03T18:36:31.123Z,76.61
2019-04-03T18:38:59.094Z,76.24
2019-04-03T18:41:28.635Z,76.36
2019-04-03T18:43:58.064Z,76.53
2019-04-03T18:46:32.429Z,77.12
2019-04-03T18:49:01.043Z,77.19
2019-04-03T18:51:29.040Z,77.71
2019-04-03T18:53:58.706Z,78.24
2019-04-03T18:56:28.142Z,78.00
2019-04-03T18:58:57.147Z,77.89
2019-04-03T19:01:26.248Z,78.09
2019-04-03T19:03:55.274Z,77.95
2019-04-03T19:06:24.334Z,78.07
2019-04-03T19:08:53.605Z,78.53
2019-04-03T19:11:22.649Z,78.04
2019-04-03T19:13:52.083Z,78.62
2019-04-03T19:16:29.560Z,77.77
2019-04-03T19:18:52.307Z,78.17
2019-04-03T19:21:28.439Z,79.29
2019-04-03T19:23:54.303Z,80.24
2019-04-03T19:26:23.648Z,81.36
2019-04-03T19:28:52.678Z,79.95
2019-04-03T19:31:22.936Z,78.57
2019-04-03T19:33:53.027Z,77.86
2019-04-03T19:36:22.640Z,77.27
2019-04-03T19:38:53.520Z,76.51
2019-04-03T19:41:22.747Z,76.19
2019-04-03T19:43:52.122Z,76.65
2019-04-03T19:46:22.769Z,76.64
2019-04-03T19:48:51.976Z,76.60
2019-04-03T19:51:21.358Z,76.22
2019-04-03T19:53:59.267Z,76.76
2019-04-03T19:56:21.630Z,76.58
2019-04-03T19:58:50.688Z,77.11
2019-04-03T20:01:20.599Z,76.35
2019-04-03T20:03:49.638Z,76.83
2019-04-03T20:06:18.703Z,77.40
2019-04-03T20:08:48.125Z,76.43
2019-04-03T20:11:17.305Z,76.38
2019-04-03T20:13:46.346Z,76.28
2019-04-03T20:16:15.799Z,76.56
2019-04-03T20:18:44.954Z,78.45
2019-04-03T20:21:15.324Z,79.52
2019-04-03T20:23:44.847Z,79.52
2019-04-03T20:26:16.291Z,80.55
2019-04-03T20:28:45.109Z,81.43
2019-04-03T20:31:14.535Z,81.40
2019-04-03T20:33:43.993Z,81.73
2019-04-03T20:36:16.517Z,82.23
2019-04-03T20:38:44.816Z,82.77
2019-04-03T20:41:13.923Z,83.02
2019-04-03T20:43:47.092Z,82.85
2019-04-03T20:46:15.206Z,83.66
2019-04-03T20:48:44.715Z,83.86
2019-04-03T20:51:13.742Z,83.57
2019-04-03T20:53:42.903Z,83.28
2019-04-03T20:56:11.979Z,83.84
2019-04-03T20:58:41.096Z,84.22
2019-04-03T21:01:10.096Z,84.40
2019-04-03T21:03:39.230Z,84.54
2019-04-03T21:06:08.665Z,84.46
2019-04-03T21:08:37.812Z,84.30
2019-04-03T21:11:07.258Z,84.28
2019-04-03T21:13:37.936Z,85.16
2019-04-03T21:16:07.376Z,84.71
2019-04-03T21:18:36.766Z,84.60
2019-04-03T21:21:06.200Z,83.97
2019-04-03T21:23:35.354Z,82.81
2019-04-03T21:26:06.615Z,82.27
2019-04-03T21:28:35.250Z,84.21
2019-04-03T21:31:04.254Z,85.45
2019-04-03T21:33:34.042Z,86.20
2019-04-03T21:36:03.204Z,85.50
2019-04-03T21:38:32.262Z,84.09
2019-04-03T21:41:01.447Z,83.74
2019-04-03T21:43:30.500Z,83.80
2019-04-03T21:46:03.458Z,85.00
2019-04-03T21:48:32.461Z,84.62
2019-04-03T21:51:01.864Z,84.32
2019-04-03T21:53:30.896Z,85.26
2019-04-03T21:56:02.615Z,85.96
2019-04-03T21:58:32.010Z,86.32
2019-04-03T22:01:14.791Z,85.24
2019-04-03T22:03:44.672Z,84.41
2019-04-03T22:06:13.827Z,84.42
2019-04-03T22:08:43.300Z,83.69
2019-04-03T22:11:13.038Z,83.59
2019-04-03T22:13:42.186Z,84.36
2019-04-03T22:16:11.916Z,84.48
2019-04-03T22:18:41.082Z,84.94
2019-04-03T22:21:10.134Z,85.57
2019-04-03T22:23:39.477Z,86.09
2019-04-03T22:26:09.816Z,85.15
2019-04-03T22:28:39.304Z,83.39
2019-04-03T22:31:08.326Z,82.79
2019-04-03T22:33:37.391Z,83.43
2019-04-03T22:36:06.408Z,84.26
2019-04-03T22:38:37.181Z,83.86
2019-04-03T22:41:06.699Z,83.62
2019-04-03T22:43:35.723Z,83.24
2019-04-03T22:46:05.237Z,83.46
2019-04-03T22:48:34.319Z,83.83
2019-04-03T22:51:04.978Z,83.93
2019-04-03T22:53:34.683Z,83.32
2019-04-03T22:56:03.683Z,83.95
2019-04-03T22:58:32.801Z,83.54
2019-04-03T23:01:01.885Z,83.53
2019-04-03T23:03:31.962Z,82.98
2019-04-03T23:06:02.021Z,83.55
2019-04-03T23:08:31.047Z,83.77
2019-04-03T23:11:01.333Z,83.65
2019-04-03T23:13:30.484Z,83.82
2019-04-03T23:15:59.938Z,83.11
2019-04-03T23:18:28.993Z,83.12
2019-04-03T23:20:58.036Z,83.71
2019-04-03T23:23:27.545Z,82.80
2019-04-03T23:25:57.057Z,83.16
2019-04-03T23:28:26.591Z,83.08
2019-04-03T23:30:55.586Z,83.38
2019-04-03T23:33:24.575Z,83.88
2019-04-03T23:35:53.929Z,84.36
2019-04-03T23:38:24.814Z,84.28
2019-04-03T23:40:53.969Z,86.07
2019-04-03T23:43:22.970Z,86.42
2019-04-03T23:45:51.987Z,85.61
2019-04-03T23:48:20.996Z,86.18
2019-04-03T23:50:52.383Z,85.34
2019-04-03T23:53:21.108Z,85.62
2019-04-03T23:55:50.512Z,86.58
2019-04-03T23:58:19.917Z,86.65
